createdAt,value
2022-09-22T00:00:25.729Z,4.76
2022-09-22T00:02:56.287Z,4.76
2022-09-22T00:05:24.814Z,4.75
2022-09-22T00:07:53.251Z,4.73
2022-09-22T00:10:21.586Z,4.74
2022-09-22T00:12:48.896Z,4.71
2022-09-22T00:15:16.088Z,4.66
2022-09-22T00:17:43.370Z,4.59
2022-09-22T00:20:13.538Z,4.58
2022-09-22T00:22:41.783Z,4.57
2022-09-22T00:25:10.407Z,4.58
2022-09-22T00:27:37.348Z,4.62
2022-09-22T00:30:05.358Z,4.58
2022-09-22T00:32:32.215Z,4.54
2022-09-22T00:34:59.295Z,4.52
2022-09-22T00:37:26.264Z,4.46
2022-09-22T00:39:54.555Z,4.44
2022-09-22T00:42:22.684Z,4.41
2022-09-22T00:44:49.712Z,4.34
2022-09-22T00:47:29.621Z,4.35
2022-09-22T00:50:02.776Z,4.29
2022-09-22T00:52:33.568Z,4.26
2022-09-22T00:55:05.518Z,4.29
2022-09-22T00:57:35.603Z,4.32
2022-09-22T01:00:06.733Z,4.29
2022-09-22T01:02:33.731Z,4.26
2022-09-22T01:05:00.833Z,4.28
2022-09-22T01:07:29.918Z,4.22
2022-09-22T01:09:58.025Z,4.18
2022-09-22T01:12:29.574Z,4.17
2022-09-22T01:15:20.777Z,4.13
2022-09-22T01:17:58.610Z,4.14
2022-09-22T01:20:48.889Z,4.08
2022-09-22T01:23:55.737Z,4.06
2022-09-22T01:26:45.480Z,4.02
2022-09-22T01:29:53.020Z,3.90
2022-09-22T01:32:28.966Z,3.89
2022-09-22T01:34:59.666Z,3.92
2022-09-22T01:37:33.167Z,3.92
2022-09-22T01:40:07.773Z,3.93
2022-09-22T01:42:39.640Z,3.88
2022-09-22T01:45:10.148Z,3.86
2022-09-22T01:47:42.655Z,3.83
2022-09-22T01:50:16.528Z,3.81
2022-09-22T01:52:44.908Z,3.81
2022-09-22T01:55:16.837Z,3.78
2022-09-22T01:57:49.543Z,3.76
2022-09-22T02:00:18.628Z,3.76
2022-09-22T02:02:53.227Z,3.75
2022-09-22T02:05:28.513Z,3.72
2022-09-22T02:07:58.985Z,3.71
2022-09-22T02:10:32.182Z,3.70
2022-09-22T02:13:00.924Z,3.66
2022-09-22T02:15:47.360Z,3.61
2022-09-22T02:18:20.506Z,3.59
2022-09-22T02:20:47.924Z,3.60
2022-09-22T02:23:14.896Z,3.55
2022-09-22T02:25:44.173Z,3.48
2022-09-22T02:28:14.089Z,3.50
2022-09-22T02:30:50.517Z,3.45
2022-09-22T02:33:29.799Z,3.45
2022-09-22T02:36:05.397Z,3.48
2022-09-22T02:38:38.426Z,3.41
2022-09-22T02:41:11.468Z,3.42
2022-09-22T02:43:42.022Z,3.40
2022-09-22T02:46:18.856Z,3.45
2022-09-22T02:48:49.901Z,3.46
2022-09-22T02:51:18.556Z,3.46
2022-09-22T02:53:45.747Z,3.43
2022-09-22T02:56:13.171Z,3.42
2022-09-22T02:58:39.977Z,3.38
2022-09-22T03:01:06.952Z,3.36
2022-09-22T03:03:34.057Z,3.36
2022-09-22T03:06:02.312Z,3.33
2022-09-22T03:08:29.389Z,3.25
2022-09-22T03:10:56.414Z,3.25
2022-09-22T03:13:23.360Z,3.23
2022-09-22T03:15:51.011Z,3.24
2022-09-22T03:18:18.096Z,3.19
2022-09-22T03:20:45.495Z,3.21
2022-09-22T03:23:13.787Z,3.23
2022-09-22T03:25:40.686Z,3.22
2022-09-22T03:28:07.667Z,3.18
2022-09-22T03:30:36.251Z,3.15
2022-09-22T03:33:03.385Z,3.13
2022-09-22T03:35:30.224Z,3.13
2022-09-22T03:37:57.304Z,3.09
2022-09-22T03:40:25.710Z,3.10
2022-09-22T03:42:52.614Z,3.09
2022-09-22T03:45:19.552Z,3.07
2022-09-22T03:47:46.666Z,3.03
2022-09-22T03:50:14.226Z,3.02
2022-09-22T03:52:43.128Z,3.00
2022-09-22T03:55:11.170Z,2.99
2022-09-22T03:57:40.070Z,2.94
2022-09-22T04:00:08.841Z,2.90
2022-09-22T04:02:35.789Z,2.93
2022-09-22T04:05:02.585Z,2.92
2022-09-22T04:07:29.410Z,2.91
2022-09-22T04:09:56.426Z,2.91
2022-09-22T04:12:23.282Z,2.99
2022-09-22T04:14:51.509Z,2.96
2022-09-22T04:17:20.781Z,2.90
2022-09-22T04:19:47.878Z,2.85
2022-09-22T04:22:14.712Z,2.82
2022-09-22T04:24:41.638Z,2.79
2022-09-22T04:27:19.508Z,2.78
2022-09-22T04:29:47.455Z,2.74
2022-09-22T04:32:15.756Z,2.75
2022-09-22T04:34:43.140Z,2.73
2022-09-22T04:37:10.115Z,2.72
2022-09-22T04:39:37.204Z,2.79
2022-09-22T04:42:04.465Z,2.75
2022-09-22T04:44:34.910Z,2.73
2022-09-22T04:47:02.653Z,2.70
2022-09-22T04:49:31.170Z,2.71
2022-09-22T04:51:58.223Z,2.69
2022-09-22T04:54:25.073Z,2.71
2022-09-22T04:56:51.892Z,2.79
2022-09-22T04:59:18.992Z,2.76
2022-09-22T05:01:45.933Z,2.73
2022-09-22T05:04:12.894Z,2.71
2022-09-22T05:06:42.203Z,2.64
2022-09-22T05:09:09.148Z,2.62
2022-09-22T05:11:36.226Z,2.59
2022-09-22T05:14:03.048Z,2.57
2022-09-22T05:16:31.425Z,2.54
2022-09-22T05:18:58.591Z,2.57
2022-09-22T05:21:25.566Z,2.55
2022-09-22T05:23:55.279Z,2.55
2022-09-22T05:26:22.135Z,2.54
2022-09-22T05:28:51.073Z,2.55
2022-09-22T05:31:18.505Z,2.53
2022-09-22T05:33:45.813Z,2.62
2022-09-22T05:36:12.996Z,2.70
2022-09-22T05:38:40.133Z,2.72
2022-09-22T05:41:08.618Z,2.79
2022-09-22T05:43:35.553Z,2.84
2022-09-22T05:46:02.531Z,2.91
2022-09-22T05:48:31.369Z,3.00
2022-09-22T05:50:58.742Z,3.09
2022-09-22T05:53:25.743Z,3.17
2022-09-22T05:55:52.641Z,3.21
2022-09-22T05:58:20.958Z,3.31
2022-09-22T06:00:48.035Z,3.40
2022-09-22T06:03:15.023Z,3.51
2022-09-22T06:05:43.869Z,3.61
2022-09-22T06:08:10.806Z,3.68
2022-09-22T06:10:38.686Z,3.74
2022-09-22T06:13:07.894Z,3.83
2022-09-22T06:15:36.711Z,3.94
2022-09-22T06:18:07.367Z,4.01
2022-09-22T06:20:34.390Z,4.08
2022-09-22T06:23:01.668Z,4.19
2022-09-22T06:25:28.590Z,4.27
2022-09-22T06:28:00.469Z,4.37
2022-09-22T06:30:27.376Z,4.50
2022-09-22T06:32:56.411Z,4.61
2022-09-22T06:35:23.948Z,4.68
2022-09-22T06:37:56.775Z,4.81
2022-09-22T06:40:24.472Z,4.89
2022-09-22T06:42:57.078Z,5.01
2022-09-22T06:45:25.210Z,5.15
2022-09-22T06:47:52.423Z,5.30
2022-09-22T06:50:20.611Z,5.39
2022-09-22T06:52:49.021Z,5.51
2022-09-22T06:55:20.161Z,5.68
2022-09-22T06:57:47.153Z,5.86
2022-09-22T07:00:15.306Z,5.99
2022-09-22T07:02:42.283Z,6.07
2022-09-22T07:05:09.415Z,6.26
2022-09-22T07:07:37.670Z,6.47
2022-09-22T07:10:05.630Z,6.67
2022-09-22T07:12:34.145Z,6.78
2022-09-22T07:15:01.010Z,6.89
2022-09-22T07:17:32.178Z,6.97
2022-09-22T07:19:59.028Z,7.11
2022-09-22T07:22:27.012Z,7.36
2022-09-22T07:24:55.309Z,7.57
2022-09-22T07:27:26.036Z,7.70
2022-09-22T07:29:54.342Z,7.78
2022-09-22T07:32:22.139Z,8.04
2022-09-22T07:34:49.386Z,8.11
2022-09-22T07:37:16.508Z,8.19
2022-09-22T07:39:45.710Z,8.42
2022-09-22T07:42:14.067Z,8.60
2022-09-22T07:44:59.566Z,8.70
2022-09-22T07:47:46.823Z,8.85
2022-09-22T07:50:17.336Z,8.93
2022-09-22T07:52:50.854Z,9.12
2022-09-22T07:55:17.811Z,9.30
2022-09-22T07:57:52.497Z,9.47
2022-09-22T08:00:19.405Z,9.69
2022-09-22T08:02:51.293Z,9.82
2022-09-22T08:05:18.294Z,9.93
2022-09-22T08:07:45.181Z,10.12
2022-09-22T08:10:15.872Z,10.12
2022-09-22T08:12:43.677Z,10.25
2022-09-22T08:15:12.888Z,10.41
2022-09-22T08:17:40.310Z,10.48
2022-09-22T08:20:09.380Z,10.63
2022-09-22T08:22:36.595Z,10.82
2022-09-22T08:25:03.918Z,10.82
2022-09-22T08:27:31.125Z,10.88
2022-09-22T08:29:58.143Z,10.89
2022-09-22T08:32:30.693Z,11.09
2022-09-22T08:34:58.841Z,11.22
2022-09-22T08:37:27.428Z,11.25
2022-09-22T08:39:54.763Z,11.31
2022-09-22T08:42:23.317Z,11.41
2022-09-22T08:44:59.921Z,11.83
2022-09-22T08:47:53.377Z,11.97
2022-09-22T08:50:44.888Z,12.13
2022-09-22T08:53:15.533Z,12.30
2022-09-22T08:55:46.531Z,12.30
2022-09-22T08:58:27.015Z,12.72
2022-09-22T09:01:05.087Z,12.97
2022-09-22T09:03:47.606Z,13.25
2022-09-22T09:06:20.898Z,13.12
2022-09-22T09:09:20.363Z,13.38
2022-09-22T09:12:10.677Z,13.73
2022-09-22T09:15:02.506Z,13.85
2022-09-22T09:17:31.033Z,14.07
2022-09-22T09:20:04.333Z,14.49
2022-09-22T09:22:44.928Z,14.48
2022-09-22T09:25:23.611Z,14.54
2022-09-22T09:27:57.454Z,14.38
2022-09-22T09:30:25.065Z,14.74
2022-09-22T09:32:56.742Z,14.85
2022-09-22T09:35:38.263Z,14.82
2022-09-22T09:38:12.187Z,15.03
2022-09-22T09:40:39.216Z,15.11
2022-09-22T09:43:07.414Z,15.18
2022-09-22T09:45:43.118Z,15.04
2022-09-22T09:48:26.102Z,15.24
2022-09-22T09:50:55.535Z,15.49
2022-09-22T09:53:31.491Z,15.74
2022-09-22T09:55:58.935Z,15.78
2022-09-22T09:58:45.294Z,15.78
2022-09-22T10:01:14.494Z,15.81
2022-09-22T10:03:47.753Z,15.78
2022-09-22T10:06:25.209Z,15.78
2022-09-22T10:08:53.606Z,15.73
2022-09-22T10:11:30.188Z,15.76
2022-09-22T10:13:58.238Z,15.90
2022-09-22T10:16:27.024Z,15.94
2022-09-22T10:19:20.598Z,16.08
2022-09-22T10:21:49.081Z,16.04
2022-09-22T10:24:29.700Z,16.15
2022-09-22T10:26:57.424Z,16.27
2022-09-22T10:29:25.172Z,16.39
2022-09-22T10:32:03.816Z,16.38
2022-09-22T10:34:33.246Z,16.55
2022-09-22T10:37:05.460Z,16.60
2022-09-22T10:39:41.312Z,16.59
2022-09-22T10:42:20.123Z,16.60
2022-09-22T10:44:49.035Z,16.57
2022-09-22T10:47:32.431Z,16.50
2022-09-22T10:50:24.013Z,16.58
2022-09-22T10:52:57.338Z,16.74
2022-09-22T10:55:30.734Z,16.87
2022-09-22T10:58:22.342Z,17.08
2022-09-22T11:00:50.516Z,17.03
2022-09-22T11:03:38.101Z,17.15
2022-09-22T11:06:39.533Z,17.17
2022-09-22T11:09:35.604Z,17.33
2022-09-22T11:12:19.489Z,-147.88
2022-09-22T11:15:04.684Z,17.30
2022-09-22T11:17:52.272Z,17.55
2022-09-22T11:20:36.846Z,17.64
2022-09-22T11:23:31.740Z,17.43
2022-09-22T11:26:12.509Z,17.80
2022-09-22T11:28:57.329Z,17.47
2022-09-22T11:31:37.726Z,17.86
2022-09-22T11:34:24.657Z,17.85
2022-09-22T11:37:00.346Z,17.88
2022-09-22T11:39:43.191Z,17.61
2022-09-22T11:42:20.515Z,17.63
2022-09-22T11:44:59.887Z,17.59
2022-09-22T11:48:02.849Z,17.83
2022-09-22T11:50:56.843Z,18.07
2022-09-22T11:53:43.548Z,18.10
2022-09-22T11:56:31.907Z,18.32
2022-09-22T11:59:06.629Z,18.34
2022-09-22T12:01:38.043Z,18.66
2022-09-22T12:04:13.863Z,18.65
2022-09-22T12:06:45.016Z,18.66
2022-09-22T12:09:27.319Z,18.55
2022-09-22T12:11:57.760Z,18.58
2022-09-22T12:14:27.677Z,18.49
2022-09-22T12:17:01.982Z,18.22
2022-09-22T12:19:38.812Z,18.67
2022-09-22T12:22:15.670Z,19.05
2022-09-22T12:24:45.752Z,18.92
2022-09-22T12:27:20.840Z,19.03
2022-09-22T12:29:56.694Z,18.60
2022-09-22T12:32:26.190Z,19.02
2022-09-22T12:34:57.696Z,19.13
2022-09-22T12:37:29.775Z,19.13
2022-09-22T12:40:01.674Z,19.08
2022-09-22T12:42:34.441Z,18.94
2022-09-22T12:45:09.583Z,18.92
2022-09-22T12:47:39.377Z,19.18
2022-09-22T12:50:26.856Z,19.26
2022-09-22T12:53:04.186Z,18.68
2022-09-22T12:55:41.000Z,19.04
2022-09-22T12:58:44.039Z,19.15
2022-09-22T13:01:32.227Z,19.19
2022-09-22T13:04:20.682Z,19.44
2022-09-22T13:06:53.767Z,19.43
2022-09-22T13:09:24.284Z,19.56
2022-09-22T13:12:23.930Z,19.46
2022-09-22T13:14:58.469Z,19.64
2022-09-22T13:17:41.999Z,19.98
2022-09-22T13:20:16.998Z,20.02
2022-09-22T13:22:44.455Z,19.54
2022-09-22T13:25:20.206Z,19.66
2022-09-22T13:27:47.332Z,19.48
2022-09-22T13:30:14.478Z,19.57
2022-09-22T13:32:49.840Z,19.65
2022-09-22T13:35:27.788Z,19.81
2022-09-22T13:37:56.789Z,19.88
2022-09-22T13:41:25.383Z,19.94
2022-09-22T13:43:56.555Z,19.79
2022-09-22T13:46:26.393Z,20.00
2022-09-22T13:48:58.419Z,20.00
2022-09-22T13:51:28.238Z,-147.88
2022-09-22T13:53:58.798Z,-147.88
2022-09-22T13:56:27.668Z,-147.88
2022-09-22T13:58:59.480Z,-147.88
2022-09-22T14:01:29.253Z,-147.88
2022-09-22T14:03:56.838Z,-147.88
2022-09-22T14:06:26.466Z,-147.88
2022-09-22T14:08:54.093Z,-147.88
2022-09-22T14:11:24.022Z,-147.88
2022-09-22T14:14:00.813Z,-147.88
2022-09-22T14:16:33.503Z,-147.88
2022-09-22T14:19:05.971Z,20.01
2022-09-22T14:21:40.367Z,20.32
2022-09-22T14:24:07.637Z,20.17
2022-09-22T14:26:37.639Z,-147.88
2022-09-22T14:29:16.018Z,-147.88
2022-09-22T14:31:46.215Z,-147.88
2022-09-22T14:34:20.162Z,-147.88
2022-09-22T14:36:50.724Z,19.90
2022-09-22T14:39:21.203Z,20.22
2022-09-22T14:41:59.805Z,19.79
2022-09-22T14:44:41.726Z,20.11
2022-09-22T14:47:30.469Z,20.00
2022-09-22T14:50:08.784Z,19.79
2022-09-22T14:52:41.857Z,19.86
2022-09-22T14:55:26.172Z,20.23
2022-09-22T14:57:53.131Z,20.77
2022-09-22T15:00:40.493Z,21.19
2022-09-22T15:03:19.146Z,21.68
2022-09-22T15:05:46.657Z,-147.88
2022-09-22T15:08:16.168Z,-147.88
2022-09-22T15:10:52.198Z,21.82
2022-09-22T15:13:29.762Z,-147.88
2022-09-22T15:15:58.835Z,-147.88
2022-09-22T15:18:30.572Z,-147.88
2022-09-22T15:21:00.010Z,-147.88
2022-09-22T15:23:31.818Z,-147.88
2022-09-22T15:26:05.034Z,-147.88
2022-09-22T15:28:37.535Z,-147.88
2022-09-22T15:31:06.451Z,-147.88
2022-09-22T15:33:33.433Z,-147.88
2022-09-22T15:36:02.851Z,-147.88
2022-09-22T15:38:32.708Z,-147.88
2022-09-22T15:41:00.067Z,-147.88
2022-09-22T15:43:33.873Z,21.18
2022-09-22T15:46:02.684Z,20.57
2022-09-22T15:48:33.911Z,20.57
2022-09-22T15:51:06.410Z,18.34
2022-09-22T15:53:34.672Z,17.67
2022-09-22T15:56:04.451Z,-147.88
2022-09-22T15:58:34.914Z,-147.88
2022-09-22T16:01:02.561Z,-147.88
2022-09-22T16:03:31.606Z,-147.88
2022-09-22T16:06:02.194Z,-147.88
2022-09-22T16:08:33.773Z,-147.88
2022-09-22T16:11:03.404Z,-147.88
2022-09-22T16:13:31.314Z,-147.88
2022-09-22T16:15:58.343Z,-147.88
2022-09-22T16:18:25.488Z,-147.88
2022-09-22T16:21:03.177Z,-147.88
2022-09-22T16:23:31.706Z,-147.88
2022-09-22T16:25:58.877Z,-147.88
2022-09-22T16:28:25.894Z,-147.88
2022-09-22T16:30:52.738Z,-147.88
2022-09-22T16:33:19.687Z,17.67
2022-09-22T16:35:48.319Z,14.96
2022-09-22T16:38:16.614Z,14.85
2022-09-22T16:40:44.494Z,14.76
2022-09-22T16:43:13.182Z,14.63
2022-09-22T16:45:58.442Z,14.44
2022-09-22T16:48:26.083Z,14.41
2022-09-22T16:50:54.931Z,14.36
2022-09-22T16:53:24.261Z,14.31
2022-09-22T16:55:51.111Z,14.14
2022-09-22T16:58:20.223Z,14.06
2022-09-22T17:00:47.457Z,14.01
2022-09-22T17:03:14.296Z,13.85
2022-09-22T17:05:41.209Z,13.70
2022-09-22T17:08:08.619Z,13.57
2022-09-22T17:10:37.020Z,13.34
2022-09-22T17:13:08.513Z,13.25
2022-09-22T17:15:36.077Z,13.16
2022-09-22T17:18:04.160Z,13.01
2022-09-22T17:20:31.223Z,12.86
2022-09-22T17:22:58.242Z,12.71
2022-09-22T17:25:29.245Z,12.55
2022-09-22T17:27:57.912Z,12.36
2022-09-22T17:30:25.029Z,12.18
2022-09-22T17:32:51.953Z,12.01
2022-09-22T17:35:18.784Z,11.91
2022-09-22T17:37:47.351Z,11.79
2022-09-22T17:40:14.637Z,11.68
2022-09-22T17:42:42.033Z,11.61
2022-09-22T17:45:11.265Z,11.53
2022-09-22T17:47:56.765Z,11.32
2022-09-22T17:50:42.198Z,11.27
2022-09-22T17:53:27.985Z,11.19
2022-09-22T17:55:54.920Z,11.02
2022-09-22T17:58:22.027Z,10.86
2022-09-22T18:00:50.886Z,10.81
2022-09-22T18:03:18.440Z,10.69
2022-09-22T18:05:51.761Z,10.56
2022-09-22T18:08:19.372Z,10.44
2022-09-22T18:10:46.404Z,10.37
2022-09-22T18:13:13.265Z,10.30
2022-09-22T18:15:41.338Z,10.28
2022-09-22T18:18:09.607Z,10.19
2022-09-22T18:20:36.609Z,10.10
2022-09-22T18:23:04.115Z,10.08
2022-09-22T18:25:32.328Z,9.99
2022-09-22T18:27:59.901Z,9.98
2022-09-22T18:30:28.311Z,9.99
2022-09-22T18:32:55.327Z,10.28
2022-09-22T18:35:24.921Z,10.70
2022-09-22T18:37:51.893Z,10.42
2022-09-22T18:40:18.919Z,10.14
2022-09-22T18:42:46.329Z,9.96
2022-09-22T18:45:14.354Z,9.78
2022-09-22T18:47:43.397Z,9.74
2022-09-22T18:50:12.105Z,9.59
2022-09-22T18:52:46.325Z,9.49
2022-09-22T18:55:19.682Z,9.43
2022-09-22T18:57:48.544Z,9.34
2022-09-22T19:00:16.873Z,9.25
2022-09-22T19:02:46.738Z,9.15
2022-09-22T19:05:15.409Z,9.12
2022-09-22T19:07:48.233Z,9.14
2022-09-22T19:10:22.327Z,8.99
2022-09-22T19:12:50.981Z,8.97
2022-09-22T19:15:20.473Z,8.89
2022-09-22T19:17:50.311Z,8.85
2022-09-22T19:20:23.420Z,8.75
2022-09-22T19:22:53.396Z,8.73
2022-09-22T19:25:21.845Z,9.29
2022-09-22T19:27:50.576Z,9.62
2022-09-22T19:30:23.771Z,9.35
2022-09-22T19:32:53.269Z,8.98
2022-09-22T19:35:21.576Z,8.83
2022-09-22T19:37:52.061Z,8.65
2022-09-22T19:40:24.969Z,8.43
2022-09-22T19:42:54.076Z,8.32
2022-09-22T19:45:24.524Z,8.28
2022-09-22T19:47:52.288Z,8.15
2022-09-22T19:50:20.004Z,8.06
2022-09-22T19:52:47.480Z,8.08
2022-09-22T19:55:20.217Z,-147.88
2022-09-22T19:57:53.982Z,7.90
2022-09-22T20:00:28.031Z,7.85
2022-09-22T20:02:59.984Z,7.82
2022-09-22T20:05:30.028Z,7.75
2022-09-22T20:07:57.479Z,7.69
2022-09-22T20:10:26.276Z,7.65
2022-09-22T20:12:56.028Z,7.58
2022-09-22T20:15:23.349Z,7.56
2022-09-22T20:17:51.075Z,7.56
2022-09-22T20:20:21.696Z,7.47
2022-09-22T20:22:53.664Z,7.48
2022-09-22T20:25:24.793Z,7.48
2022-09-22T20:27:52.661Z,7.91
2022-09-22T20:30:22.123Z,8.06
2022-09-22T20:32:51.441Z,7.84
2022-09-22T20:35:22.216Z,7.59
2022-09-22T20:37:49.814Z,7.44
2022-09-22T20:40:20.677Z,7.41
2022-09-22T20:42:49.106Z,7.27
2022-09-22T20:45:18.281Z,7.25
2022-09-22T20:47:46.836Z,7.21
2022-09-22T20:50:14.063Z,7.14
2022-09-22T20:52:43.354Z,7.05
2022-09-22T20:55:10.921Z,6.99
2022-09-22T20:57:38.826Z,6.91
2022-09-22T21:00:07.516Z,6.92
2022-09-22T21:02:35.180Z,-147.88
2022-09-22T21:05:04.389Z,-147.88
2022-09-22T21:07:32.297Z,-147.88
2022-09-22T21:10:17.950Z,-147.88
2022-09-22T21:12:45.164Z,-147.88
2022-09-22T21:15:12.273Z,-147.88
2022-09-22T21:17:43.712Z,-147.88
2022-09-22T21:20:12.429Z,-147.88
2022-09-22T21:22:39.623Z,-147.88
2022-09-22T21:25:07.076Z,-147.88
2022-09-22T21:27:33.943Z,-147.88
2022-09-22T21:30:00.889Z,-147.88
2022-09-22T21:32:28.631Z,-147.88
2022-09-22T21:34:57.483Z,-147.88
2022-09-22T21:37:26.818Z,-147.88
2022-09-22T21:39:53.866Z,-147.88
2022-09-22T21:42:20.905Z,-147.88
2022-09-22T21:44:48.754Z,-147.88
2022-09-22T21:47:15.703Z,-147.88
2022-09-22T21:49:42.884Z,-147.88
2022-09-22T21:52:10.248Z,-147.88
2022-09-22T21:54:38.599Z,-147.88
2022-09-22T21:57:05.708Z,-147.88
2022-09-22T21:59:33.062Z,6.08
2022-09-22T22:02:00.228Z,6.08
2022-09-22T22:04:27.893Z,6.01
2022-09-22T22:06:56.429Z,6.02
2022-09-22T22:09:25.467Z,5.97
2022-09-22T22:11:56.761Z,5.96
2022-09-22T22:14:25.964Z,5.90
2022-09-22T22:16:54.974Z,5.87
2022-09-22T22:19:24.875Z,5.86
2022-09-22T22:21:52.500Z,5.88
2022-09-22T22:24:27.778Z,5.86
2022-09-22T22:27:01.517Z,5.92
2022-09-22T22:29:34.735Z,5.82
2022-09-22T22:32:02.665Z,5.80
2022-09-22T22:34:29.669Z,5.76
2022-09-22T22:37:00.858Z,5.78
2022-09-22T22:39:28.531Z,5.72
2022-09-22T22:41:57.010Z,5.76
2022-09-22T22:44:24.162Z,5.73
2022-09-22T22:46:51.541Z,5.68
2022-09-22T22:49:18.702Z,5.60
2022-09-22T22:51:46.059Z,5.60
2022-09-22T22:54:14.445Z,5.60
2022-09-22T22:56:43.214Z,5.49
2022-09-22T22:59:13.463Z,5.44
2022-09-22T23:01:41.831Z,5.39
2022-09-22T23:04:11.282Z,5.36
2022-09-22T23:06:39.988Z,5.36
2022-09-22T23:09:08.764Z,5.34
2022-09-22T23:11:38.208Z,5.36
2022-09-22T23:14:08.191Z,5.36
2022-09-22T23:16:38.836Z,5.31
2022-09-22T23:19:08.102Z,5.30
2022-09-22T23:21:36.465Z,5.24
2022-09-22T23:24:04.060Z,5.23
2022-09-22T23:26:32.064Z,5.21
2022-09-22T23:28:59.807Z,5.18
2022-09-22T23:31:27.402Z,5.20
2022-09-22T23:33:57.703Z,5.20
2022-09-22T23:36:25.909Z,5.17
2022-09-22T23:38:53.984Z,5.10
2022-09-22T23:41:21.302Z,5.13
